Ballantine, Montana
Current Conditions -  °F | °C
As of 8:53 AM on Friday 21 Nov 2014 (Local Time) from KBIL Reporting Station
Broken Clouds Broken Clouds  
Wind Chill: 23°   Ceiling: 20000
Heat Index: 33°   Visibility: 10mi
Dew Point: 20°   Wind: 16mph
Humidity: 59%   Direction: 240°WSW
Pressure: 29.86"   Gusts: NA
Location:  45.95°N, 108.15°W
Report Text: KBIL 211553Z 24014KT 10SM SCT095 BKN200 01/M07 A2986 RMK AO2 SLP134 ACSL DSNT S-W T00061067
Loading
Personal Weather Stations






























Interactive Weather Map New forecast layout! Learn more

10-Day Weather Forecast

Advertisements
Track Severe Weather on mobile